sensor_id;sensor_type;location;lat;lon;timestamp;P1;durP1;ratioP1;P2;durP2;ratioP2
62588;SDS011;58504;48.770;9.148;2023-06-14T00:01:57;2.47;;;2.00;;
62588;SDS011;58504;48.770;9.148;2023-06-14T00:04:24;1.92;;;1.60;;
62588;SDS011;58504;48.770;9.148;2023-06-14T00:06:52;3.17;;;2.67;;
62588;SDS011;58504;48.770;9.148;2023-06-14T00:09:21;2.75;;;2.55;;
62588;SDS011;58504;48.770;9.148;2023-06-14T00:11:48;2.20;;;2.10;;
62588;SDS011;58504;48.770;9.148;2023-06-14T00:14:15;2.58;;;2.25;;
62588;SDS011;58504;48.770;9.148;2023-06-14T00:16:41;3.60;;;2.05;;
62588;SDS011;58504;48.770;9.148;2023-06-14T00:19:08;2.58;;;2.28;;
62588;SDS011;58504;48.770;9.148;2023-06-14T00:21:35;3.13;;;2.50;;
62588;SDS011;58504;48.770;9.148;2023-06-14T00:24:04;2.03;;;1.92;;
62588;SDS011;58504;48.770;9.148;2023-06-14T00:26:31;2.00;;;1.88;;
62588;SDS011;58504;48.770;9.148;2023-06-14T00:28:58;2.42;;;2.33;;
62588;SDS011;58504;48.770;9.148;2023-06-14T00:31:25;1.90;;;1.80;;
62588;SDS011;58504;48.770;9.148;2023-06-14T00:33:51;2.05;;;1.90;;
62588;SDS011;58504;48.770;9.148;2023-06-14T00:36:18;1.80;;;1.70;;
62588;SDS011;58504;48.770;9.148;2023-06-14T00:38:45;2.15;;;2.03;;
62588;SDS011;58504;48.770;9.148;2023-06-14T00:41:13;2.28;;;2.15;;
62588;SDS011;58504;48.770;9.148;2023-06-14T00:43:40;1.92;;;1.83;;
62588;SDS011;58504;48.770;9.148;2023-06-14T00:46:06;1.88;;;1.77;;
62588;SDS011;58504;48.770;9.148;2023-06-14T00:48:33;2.05;;;1.85;;
62588;SDS011;58504;48.770;9.148;2023-06-14T00:51:02;1.73;;;1.63;;
62588;SDS011;58504;48.770;9.148;2023-06-14T00:53:29;1.90;;;1.80;;
62588;SDS011;58504;48.770;9.148;2023-06-14T00:55:58;2.40;;;2.30;;
62588;SDS011;58504;48.770;9.148;2023-06-14T00:58:27;2.17;;;2.08;;
62588;SDS011;58504;48.770;9.148;2023-06-14T01:00:54;2.38;;;2.13;;
62588;SDS011;58504;48.770;9.148;2023-06-14T01:03:22;2.30;;;2.10;;
62588;SDS011;58504;48.770;9.148;2023-06-14T01:05:50;2.83;;;1.58;;
62588;SDS011;58504;48.770;9.148;2023-06-14T01:08:28;1.88;;;1.77;;
62588;SDS011;58504;48.770;9.148;2023-06-14T01:11:02;3.55;;;2.00;;
62588;SDS011;58504;48.770;9.148;2023-06-14T01:13:35;1.90;;;1.80;;
62588;SDS011;58504;48.770;9.148;2023-06-14T01:16:04;3.55;;;1.73;;
62588;SDS011;58504;48.770;9.148;2023-06-14T01:18:32;2.88;;;2.50;;
62588;SDS011;58504;48.770;9.148;2023-06-14T01:21:00;1.83;;;1.73;;
62588;SDS011;58504;48.770;9.148;2023-06-14T01:23:32;2.60;;;2.35;;
62588;SDS011;58504;48.770;9.148;2023-06-14T01:25:59;1.90;;;1.80;;
62588;SDS011;58504;48.770;9.148;2023-06-14T01:28:28;3.78;;;1.90;;
62588;SDS011;58504;48.770;9.148;2023-06-14T01:30:57;2.72;;;2.10;;
62588;SDS011;58504;48.770;9.148;2023-06-14T01:33:29;2.20;;;2.10;;
62588;SDS011;58504;48.770;9.148;2023-06-14T01:35:57;2.33;;;2.05;;
62588;SDS011;58504;48.770;9.148;2023-06-14T01:38:25;2.22;;;2.03;;
62588;SDS011;58504;48.770;9.148;2023-06-14T01:40:54;3.30;;;2.05;;
62588;SDS011;58504;48.770;9.148;2023-06-14T01:43:24;1.95;;;1.85;;
62588;SDS011;58504;48.770;9.148;2023-06-14T01:45:52;2.30;;;1.90;;
62588;SDS011;58504;48.770;9.148;2023-06-14T01:48:19;2.00;;;1.83;;
62588;SDS011;58504;48.770;9.148;2023-06-14T01:50:47;1.92;;;1.83;;
62588;SDS011;58504;48.770;9.148;2023-06-14T01:53:14;2.22;;;2.03;;
62588;SDS011;58504;48.770;9.148;2023-06-14T01:55:41;2.78;;;2.13;;
62588;SDS011;58504;48.770;9.148;2023-06-14T01:58:14;2.22;;;2.10;;
62588;SDS011;58504;48.770;9.148;2023-06-14T02:00:42;1.92;;;1.83;;
62588;SDS011;58504;48.770;9.148;2023-06-14T02:03:10;1.60;;;1.50;;
62588;SDS011;58504;48.770;9.148;2023-06-14T02:05:38;1.25;;;1.25;;
62588;SDS011;58504;48.770;9.148;2023-06-14T02:08:05;1.75;;;1.55;;
62588;SDS011;58504;48.770;9.148;2023-06-14T02:10:32;1.95;;;1.85;;
62588;SDS011;58504;48.770;9.148;2023-06-14T02:12:58;1.67;;;1.58;;
62588;SDS011;58504;48.770;9.148;2023-06-14T02:15:27;1.98;;;1.88;;
62588;SDS011;58504;48.770;9.148;2023-06-14T02:17:59;1.85;;;1.75;;
62588;SDS011;58504;48.770;9.148;2023-06-14T02:20:27;1.92;;;1.83;;
62588;SDS011;58504;48.770;9.148;2023-06-14T02:22:54;1.83;;;1.73;;
62588;SDS011;58504;48.770;9.148;2023-06-14T02:25:20;2.22;;;1.85;;
62588;SDS011;58504;48.770;9.148;2023-06-14T02:27:47;2.13;;;1.90;;
62588;SDS011;58504;48.770;9.148;2023-06-14T02:30:15;1.70;;;1.60;;
62588;SDS011;58504;48.770;9.148;2023-06-14T02:32:43;1.75;;;1.65;;
62588;SDS011;58504;48.770;9.148;2023-06-14T02:35:09;2.05;;;1.85;;
62588;SDS011;58504;48.770;9.148;2023-06-14T02:37:36;1.83;;;1.73;;
62588;SDS011;58504;48.770;9.148;2023-06-14T02:40:04;1.48;;;1.38;;
62588;SDS011;58504;48.770;9.148;2023-06-14T02:42:32;1.73;;;1.63;;
62588;SDS011;58504;48.770;9.148;2023-06-14T02:44:58;2.10;;;2.00;;
62588;SDS011;58504;48.770;9.148;2023-06-14T02:47:25;1.70;;;1.60;;
62588;SDS011;58504;48.770;9.148;2023-06-14T02:49:53;1.88;;;1.77;;
62588;SDS011;58504;48.770;9.148;2023-06-14T02:52:20;2.17;;;1.80;;
62588;SDS011;58504;48.770;9.148;2023-06-14T02:54:47;2.00;;;1.90;;
62588;SDS011;58504;48.770;9.148;2023-06-14T02:57:14;1.35;;;1.35;;
62588;SDS011;58504;48.770;9.148;2023-06-14T02:59:41;1.98;;;1.88;;
62588;SDS011;58504;48.770;9.148;2023-06-14T03:02:07;1.80;;;1.70;;
62588;SDS011;58504;48.770;9.148;2023-06-14T03:04:34;2.20;;;2.03;;
62588;SDS011;58504;48.770;9.148;2023-06-14T03:07:03;1.92;;;1.80;;
62588;SDS011;58504;48.770;9.148;2023-06-14T03:09:34;1.67;;;1.58;;
62588;SDS011;58504;48.770;9.148;2023-06-14T03:12:01;1.80;;;1.70;;
62588;SDS011;58504;48.770;9.148;2023-06-14T03:14:29;1.95;;;1.85;;
62588;SDS011;58504;48.770;9.148;2023-06-14T03:16:56;1.83;;;1.60;;
62588;SDS011;58504;48.770;9.148;2023-06-14T03:19:24;2.08;;;1.90;;
62588;SDS011;58504;48.770;9.148;2023-06-14T03:21:51;1.75;;;1.65;;
62588;SDS011;58504;48.770;9.148;2023-06-14T03:24:20;1.67;;;1.58;;
62588;SDS011;58504;48.770;9.148;2023-06-14T03:26:46;1.55;;;1.45;;
62588;SDS011;58504;48.770;9.148;2023-06-14T03:29:13;2.17;;;2.08;;
62588;SDS011;58504;48.770;9.148;2023-06-14T03:31:55;1.80;;;1.70;;
62588;SDS011;58504;48.770;9.148;2023-06-14T03:34:23;2.30;;;1.70;;
62588;SDS011;58504;48.770;9.148;2023-06-14T03:36:49;1.70;;;1.60;;
62588;SDS011;58504;48.770;9.148;2023-06-14T03:39:16;2.25;;;1.83;;
62588;SDS011;58504;48.770;9.148;2023-06-14T03:41:44;1.90;;;1.80;;
62588;SDS011;58504;48.770;9.148;2023-06-14T03:44:11;1.70;;;1.60;;
62588;SDS011;58504;48.770;9.148;2023-06-14T03:46:40;1.70;;;1.60;;
62588;SDS011;58504;48.770;9.148;2023-06-14T03:49:06;2.17;;;1.73;;
62588;SDS011;58504;48.770;9.148;2023-06-14T03:51:33;2.08;;;1.98;;
62588;SDS011;58504;48.770;9.148;2023-06-14T03:54:00;1.73;;;1.63;;
62588;SDS011;58504;48.770;9.148;2023-06-14T03:56:27;1.80;;;1.70;;
62588;SDS011;58504;48.770;9.148;2023-06-14T03:58:55;1.73;;;1.63;;
62588;SDS011;58504;48.770;9.148;2023-06-14T04:01:22;1.42;;;1.33;;
62588;SDS011;58504;48.770;9.148;2023-06-14T04:03:54;2.63;;;1.80;;
62588;SDS011;58504;48.770;9.148;2023-06-14T04:06:22;1.77;;;1.67;;
62588;SDS011;58504;48.770;9.148;2023-06-14T04:08:56;1.70;;;1.58;;
62588;SDS011;58504;48.770;9.148;2023-06-14T04:11:29;1.60;;;1.50;;
62588;SDS011;58504;48.770;9.148;2023-06-14T04:13:57;1.65;;;1.55;;
62588;SDS011;58504;48.770;9.148;2023-06-14T04:16:24;1.70;;;1.60;;
62588;SDS011;58504;48.770;9.148;2023-06-14T04:18:51;1.90;;;1.80;;
62588;SDS011;58504;48.770;9.148;2023-06-14T04:21:18;1.33;;;1.30;;
62588;SDS011;58504;48.770;9.148;2023-06-14T04:23:45;1.55;;;1.45;;
62588;SDS011;58504;48.770;9.148;2023-06-14T04:26:12;1.60;;;1.50;;
62588;SDS011;58504;48.770;9.148;2023-06-14T04:28:39;1.73;;;1.63;;
62588;SDS011;58504;48.770;9.148;2023-06-14T04:31:08;1.80;;;1.70;;
62588;SDS011;58504;48.770;9.148;2023-06-14T04:33:34;1.70;;;1.60;;
62588;SDS011;58504;48.770;9.148;2023-06-14T04:36:08;2.08;;;1.70;;
62588;SDS011;58504;48.770;9.148;2023-06-14T04:38:35;1.70;;;1.60;;
62588;SDS011;58504;48.770;9.148;2023-06-14T04:41:02;1.90;;;1.80;;
62588;SDS011;58504;48.770;9.148;2023-06-14T04:43:28;1.80;;;1.70;;
62588;SDS011;58504;48.770;9.148;2023-06-14T04:45:56;1.50;;;1.40;;
62588;SDS011;58504;48.770;9.148;2023-06-14T04:48:25;1.85;;;1.75;;
62588;SDS011;58504;48.770;9.148;2023-06-14T04:50:51;1.52;;;1.48;;
62588;SDS011;58504;48.770;9.148;2023-06-14T04:53:19;1.73;;;1.63;;
62588;SDS011;58504;48.770;9.148;2023-06-14T04:55:47;1.42;;;1.40;;
62588;SDS011;58504;48.770;9.148;2023-06-14T04:58:15;1.67;;;1.58;;
62588;SDS011;58504;48.770;9.148;2023-06-14T05:00:42;1.75;;;1.65;;
62588;SDS011;58504;48.770;9.148;2023-06-14T05:03:09;1.70;;;1.60;;
62588;SDS011;58504;48.770;9.148;2023-06-14T05:05:39;1.90;;;1.80;;
62588;SDS011;58504;48.770;9.148;2023-06-14T05:08:06;1.70;;;1.60;;
62588;SDS011;58504;48.770;9.148;2023-06-14T05:10:33;1.63;;;1.52;;
62588;SDS011;58504;48.770;9.148;2023-06-14T05:13:01;1.88;;;1.77;;
62588;SDS011;58504;48.770;9.148;2023-06-14T05:15:28;1.83;;;1.73;;
62588;SDS011;58504;48.770;9.148;2023-06-14T05:17:55;1.45;;;1.05;;
62588;SDS011;58504;48.770;9.148;2023-06-14T05:20:22;1.75;;;1.65;;
62588;SDS011;58504;48.770;9.148;2023-06-14T05:22:51;2.00;;;1.70;;
62588;SDS011;58504;48.770;9.148;2023-06-14T05:25:18;1.60;;;1.50;;
62588;SDS011;58504;48.770;9.148;2023-06-14T05:27:45;1.83;;;1.73;;
62588;SDS011;58504;48.770;9.148;2023-06-14T05:30:13;1.60;;;1.50;;
62588;SDS011;58504;48.770;9.148;2023-06-14T05:32:40;1.35;;;1.35;;
62588;SDS011;58504;48.770;9.148;2023-06-14T05:35:07;1.85;;;1.75;;
62588;SDS011;58504;48.770;9.148;2023-06-14T05:37:35;1.63;;;1.52;;
62588;SDS011;58504;48.770;9.148;2023-06-14T05:40:03;1.90;;;1.77;;
62588;SDS011;58504;48.770;9.148;2023-06-14T05:42:31;3.05;;;1.90;;
62588;SDS011;58504;48.770;9.148;2023-06-14T05:44:58;5.95;;;2.30;;
62588;SDS011;58504;48.770;9.148;2023-06-14T05:47:25;5.07;;;1.98;;
62588;SDS011;58504;48.770;9.148;2023-06-14T05:49:52;6.07;;;2.40;;
62588;SDS011;58504;48.770;9.148;2023-06-14T05:52:20;3.60;;;2.42;;
62588;SDS011;58504;48.770;9.148;2023-06-14T05:54:46;3.78;;;1.98;;
62588;SDS011;58504;48.770;9.148;2023-06-14T05:57:15;2.53;;;2.33;;
62588;SDS011;58504;48.770;9.148;2023-06-14T05:59:42;1.98;;;1.88;;
62588;SDS011;58504;48.770;9.148;2023-06-14T06:02:09;5.45;;;2.22;;
62588;SDS011;58504;48.770;9.148;2023-06-14T06:04:35;6.35;;;2.30;;
62588;SDS011;58504;48.770;9.148;2023-06-14T06:07:02;2.13;;;1.95;;
62588;SDS011;58504;48.770;9.148;2023-06-14T06:09:30;2.47;;;2.15;;
62588;SDS011;58504;48.770;9.148;2023-06-14T06:11:57;3.08;;;2.60;;
62588;SDS011;58504;48.770;9.148;2023-06-14T06:14:25;2.45;;;2.35;;
62588;SDS011;58504;48.770;9.148;2023-06-14T06:16:51;7.20;;;3.30;;
62588;SDS011;58504;48.770;9.148;2023-06-14T06:19:19;2.33;;;2.15;;
62588;SDS011;58504;48.770;9.148;2023-06-14T06:21:46;3.13;;;2.22;;
62588;SDS011;58504;48.770;9.148;2023-06-14T06:24:13;3.25;;;2.33;;
62588;SDS011;58504;48.770;9.148;2023-06-14T06:26:40;2.80;;;2.35;;
62588;SDS011;58504;48.770;9.148;2023-06-14T06:29:06;2.03;;;1.90;;
62588;SDS011;58504;48.770;9.148;2023-06-14T06:31:35;4.03;;;2.33;;
62588;SDS011;58504;48.770;9.148;2023-06-14T06:34:01;2.75;;;1.92;;
62588;SDS011;58504;48.770;9.148;2023-06-14T06:36:28;8.10;;;2.55;;
62588;SDS011;58504;48.770;9.148;2023-06-14T06:38:55;2.42;;;2.20;;
62588;SDS011;58504;48.770;9.148;2023-06-14T06:41:22;2.90;;;2.60;;
62588;SDS011;58504;48.770;9.148;2023-06-14T06:43:48;5.15;;;2.30;;
62588;SDS011;58504;48.770;9.148;2023-06-14T06:46:15;2.30;;;2.05;;
62588;SDS011;58504;48.770;9.148;2023-06-14T06:48:44;3.53;;;2.10;;
62588;SDS011;58504;48.770;9.148;2023-06-14T06:51:11;2.15;;;2.05;;
62588;SDS011;58504;48.770;9.148;2023-06-14T06:53:38;2.90;;;2.20;;
62588;SDS011;58504;48.770;9.148;2023-06-14T06:56:05;6.25;;;2.85;;
62588;SDS011;58504;48.770;9.148;2023-06-14T06:58:32;3.10;;;2.83;;
62588;SDS011;58504;48.770;9.148;2023-06-14T07:00:59;4.40;;;2.90;;
62588;SDS011;58504;48.770;9.148;2023-06-14T07:03:25;3.63;;;2.33;;
62588;SDS011;58504;48.770;9.148;2023-06-14T07:05:54;8.13;;;2.80;;
62588;SDS011;58504;48.770;9.148;2023-06-14T07:08:20;4.15;;;2.67;;
62588;SDS011;58504;48.770;9.148;2023-06-14T07:10:47;2.80;;;2.40;;
62588;SDS011;58504;48.770;9.148;2023-06-14T07:13:14;5.68;;;2.47;;
62588;SDS011;58504;48.770;9.148;2023-06-14T07:15:41;2.88;;;2.55;;
62588;SDS011;58504;48.770;9.148;2023-06-14T07:18:08;3.13;;;2.40;;
62588;SDS011;58504;48.770;9.148;2023-06-14T07:20:34;4.60;;;2.25;;
62588;SDS011;58504;48.770;9.148;2023-06-14T07:23:04;3.17;;;2.85;;
62588;SDS011;58504;48.770;9.148;2023-06-14T07:25:31;2.75;;;2.42;;
62588;SDS011;58504;48.770;9.148;2023-06-14T07:27:58;2.92;;;2.47;;
62588;SDS011;58504;48.770;9.148;2023-06-14T07:30:25;3.92;;;2.70;;
62588;SDS011;58504;48.770;9.148;2023-06-14T07:32:52;2.50;;;2.30;;
62588;SDS011;58504;48.770;9.148;2023-06-14T07:35:19;2.75;;;2.55;;
62588;SDS011;58504;48.770;9.148;2023-06-14T07:37:46;3.67;;;2.50;;
62588;SDS011;58504;48.770;9.148;2023-06-14T07:40:14;2.75;;;2.55;;
62588;SDS011;58504;48.770;9.148;2023-06-14T07:42:41;3.45;;;2.40;;
62588;SDS011;58504;48.770;9.148;2023-06-14T07:45:08;3.50;;;2.40;;
62588;SDS011;58504;48.770;9.148;2023-06-14T07:47:35;3.83;;;2.75;;
62588;SDS011;58504;48.770;9.148;2023-06-14T07:50:02;2.88;;;2.50;;
62588;SDS011;58504;48.770;9.148;2023-06-14T07:52:29;2.70;;;2.50;;
62588;SDS011;58504;48.770;9.148;2023-06-14T07:54:56;4.03;;;2.53;;
62588;SDS011;58504;48.770;9.148;2023-06-14T07:57:24;3.25;;;2.50;;
62588;SDS011;58504;48.770;9.148;2023-06-14T07:59:51;7.93;;;3.45;;
62588;SDS011;58504;48.770;9.148;2023-06-14T08:02:18;5.75;;;2.80;;
62588;SDS011;58504;48.770;9.148;2023-06-14T08:04:45;11.32;;;4.15;;
62588;SDS011;58504;48.770;9.148;2023-06-14T08:07:11;8.07;;;3.80;;
62588;SDS011;58504;48.770;9.148;2023-06-14T08:09:38;13.32;;;3.58;;
62588;SDS011;58504;48.770;9.148;2023-06-14T08:12:05;6.70;;;3.58;;
62588;SDS011;58504;48.770;9.148;2023-06-14T08:14:36;6.40;;;3.20;;
62588;SDS011;58504;48.770;9.148;2023-06-14T08:17:03;4.80;;;3.03;;
62588;SDS011;58504;48.770;9.148;2023-06-14T08:19:30;8.27;;;3.33;;
62588;SDS011;58504;48.770;9.148;2023-06-14T08:21:57;5.47;;;3.42;;
62588;SDS011;58504;48.770;9.148;2023-06-14T08:24:23;7.03;;;3.50;;
62588;SDS011;58504;48.770;9.148;2023-06-14T08:26:51;3.38;;;3.03;;
62588;SDS011;58504;48.770;9.148;2023-06-14T08:29:18;5.85;;;3.50;;
62588;SDS011;58504;48.770;9.148;2023-06-14T08:31:47;3.10;;;2.63;;
62588;SDS011;58504;48.770;9.148;2023-06-14T08:34:14;5.25;;;3.25;;
62588;SDS011;58504;48.770;9.148;2023-06-14T08:36:41;6.72;;;3.15;;
62588;SDS011;58504;48.770;9.148;2023-06-14T08:39:07;4.80;;;2.90;;
62588;SDS011;58504;48.770;9.148;2023-06-14T08:41:35;5.82;;;3.00;;
62588;SDS011;58504;48.770;9.148;2023-06-14T08:44:02;4.20;;;2.80;;
62588;SDS011;58504;48.770;9.148;2023-06-14T08:46:29;6.13;;;2.70;;
62588;SDS011;58504;48.770;9.148;2023-06-14T08:49:00;5.03;;;3.10;;
62588;SDS011;58504;48.770;9.148;2023-06-14T08:51:28;7.03;;;3.80;;
62588;SDS011;58504;48.770;9.148;2023-06-14T08:53:59;5.10;;;3.13;;
62588;SDS011;58504;48.770;9.148;2023-06-14T08:56:26;3.25;;;2.55;;
62588;SDS011;58504;48.770;9.148;2023-06-14T08:58:54;4.25;;;2.83;;
62588;SDS011;58504;48.770;9.148;2023-06-14T09:01:22;5.97;;;3.22;;
62588;SDS011;58504;48.770;9.148;2023-06-14T09:03:49;8.40;;;3.00;;
62588;SDS011;58504;48.770;9.148;2023-06-14T09:06:18;3.38;;;2.67;;
62588;SDS011;58504;48.770;9.148;2023-06-14T09:08:48;7.33;;;3.13;;
62588;SDS011;58504;48.770;9.148;2023-06-14T09:11:15;2.88;;;2.35;;
62588;SDS011;58504;48.770;9.148;2023-06-14T09:13:44;3.50;;;2.80;;
62588;SDS011;58504;48.770;9.148;2023-06-14T09:16:11;3.30;;;2.95;;
62588;SDS011;58504;48.770;9.148;2023-06-14T09:18:39;4.78;;;2.70;;
62588;SDS011;58504;48.770;9.148;2023-06-14T09:21:09;2.78;;;2.50;;
62588;SDS011;58504;48.770;9.148;2023-06-14T09:23:38;4.35;;;3.05;;
62588;SDS011;58504;48.770;9.148;2023-06-14T09:26:08;3.60;;;2.42;;
62588;SDS011;58504;48.770;9.148;2023-06-14T09:28:35;4.80;;;3.30;;
62588;SDS011;58504;48.770;9.148;2023-06-14T09:31:02;4.32;;;2.92;;
62588;SDS011;58504;48.770;9.148;2023-06-14T09:33:30;3.88;;;2.72;;
62588;SDS011;58504;48.770;9.148;2023-06-14T09:35:57;2.70;;;2.35;;
62588;SDS011;58504;48.770;9.148;2023-06-14T09:38:24;4.28;;;3.15;;
62588;SDS011;58504;48.770;9.148;2023-06-14T09:40:53;3.90;;;2.90;;
62588;SDS011;58504;48.770;9.148;2023-06-14T09:43:22;3.00;;;2.80;;
62588;SDS011;58504;48.770;9.148;2023-06-14T09:45:51;4.88;;;2.83;;
62588;SDS011;58504;48.770;9.148;2023-06-14T09:48:18;2.97;;;2.78;;
62588;SDS011;58504;48.770;9.148;2023-06-14T09:50:45;2.65;;;2.45;;
62588;SDS011;58504;48.770;9.148;2023-06-14T09:53:13;6.25;;;2.70;;
62588;SDS011;58504;48.770;9.148;2023-06-14T09:55:41;2.78;;;2.58;;
62588;SDS011;58504;48.770;9.148;2023-06-14T09:58:10;5.55;;;3.63;;
62588;SDS011;58504;48.770;9.148;2023-06-14T10:00:38;6.60;;;2.83;;
62588;SDS011;58504;48.770;9.148;2023-06-14T10:03:10;3.10;;;2.88;;
62588;SDS011;58504;48.770;9.148;2023-06-14T10:05:39;3.83;;;2.72;;
62588;SDS011;58504;48.770;9.148;2023-06-14T10:08:10;4.82;;;2.90;;
62588;SDS011;58504;48.770;9.148;2023-06-14T10:10:42;2.85;;;2.58;;
62588;SDS011;58504;48.770;9.148;2023-06-14T10:13:10;5.22;;;2.80;;
62588;SDS011;58504;48.770;9.148;2023-06-14T10:15:40;4.05;;;3.35;;
62588;SDS011;58504;48.770;9.148;2023-06-14T10:18:16;3.42;;;2.88;;
62588;SDS011;58504;48.770;9.148;2023-06-14T10:20:51;5.13;;;2.50;;
62588;SDS011;58504;48.770;9.148;2023-06-14T10:23:26;4.22;;;2.70;;
62588;SDS011;58504;48.770;9.148;2023-06-14T10:25:56;4.65;;;2.47;;
62588;SDS011;58504;48.770;9.148;2023-06-14T10:28:26;4.72;;;2.63;;
62588;SDS011;58504;48.770;9.148;2023-06-14T10:31:02;9.43;;;3.55;;
62588;SDS011;58504;48.770;9.148;2023-06-14T10:33:30;8.27;;;3.00;;
62588;SDS011;58504;48.770;9.148;2023-06-14T10:38:58;9.00;;;3.58;;
62588;SDS011;58504;48.770;9.148;2023-06-14T10:41:31;6.35;;;3.60;;
62588;SDS011;58504;48.770;9.148;2023-06-14T10:44:11;6.38;;;3.72;;
62588;SDS011;58504;48.770;9.148;2023-06-14T10:46:59;4.53;;;3.30;;
62588;SDS011;58504;48.770;9.148;2023-06-14T10:49:36;3.45;;;2.90;;
62588;SDS011;58504;48.770;9.148;2023-06-14T10:52:07;3.83;;;3.42;;
62588;SDS011;58504;48.770;9.148;2023-06-14T10:54:54;4.70;;;3.58;;
62588;SDS011;58504;48.770;9.148;2023-06-14T10:57:41;4.25;;;3.67;;
62588;SDS011;58504;48.770;9.148;2023-06-14T11:00:12;4.65;;;3.75;;
62588;SDS011;58504;48.770;9.148;2023-06-14T11:03:06;5.57;;;3.63;;
62588;SDS011;58504;48.770;9.148;2023-06-14T11:05:57;13.55;;;3.95;;
62588;SDS011;58504;48.770;9.148;2023-06-14T11:08:39;4.57;;;3.85;;
62588;SDS011;58504;48.770;9.148;2023-06-14T11:11:29;4.85;;;3.35;;
62588;SDS011;58504;48.770;9.148;2023-06-14T11:13:57;4.95;;;3.42;;
62588;SDS011;58504;48.770;9.148;2023-06-14T11:16:28;5.03;;;3.30;;
62588;SDS011;58504;48.770;9.148;2023-06-14T11:18:57;3.78;;;3.28;;
62588;SDS011;58504;48.770;9.148;2023-06-14T11:21:24;3.70;;;3.17;;
62588;SDS011;58504;48.770;9.148;2023-06-14T11:26:26;5.47;;;3.45;;
62588;SDS011;58504;48.770;9.148;2023-06-14T11:28:56;5.28;;;3.42;;
62588;SDS011;58504;48.770;9.148;2023-06-14T11:31:24;3.83;;;3.53;;
62588;SDS011;58504;48.770;9.148;2023-06-14T11:33:54;5.07;;;3.35;;
62588;SDS011;58504;48.770;9.148;2023-06-14T11:36:21;3.13;;;2.92;;
62588;SDS011;58504;48.770;9.148;2023-06-14T11:38:48;3.10;;;2.88;;
62588;SDS011;58504;48.770;9.148;2023-06-14T11:41:15;5.65;;;3.63;;
62588;SDS011;58504;48.770;9.148;2023-06-14T11:43:42;3.95;;;2.83;;
62588;SDS011;58504;48.770;9.148;2023-06-14T11:46:12;4.60;;;3.28;;
62588;SDS011;58504;48.770;9.148;2023-06-14T11:48:40;3.45;;;3.15;;
62588;SDS011;58504;48.770;9.148;2023-06-14T11:51:09;3.20;;;2.80;;
62588;SDS011;58504;48.770;9.148;2023-06-14T11:53:36;3.40;;;3.08;;
62588;SDS011;58504;48.770;9.148;2023-06-14T11:56:03;3.40;;;3.05;;
62588;SDS011;58504;48.770;9.148;2023-06-14T11:58:30;2.95;;;2.70;;
62588;SDS011;58504;48.770;9.148;2023-06-14T12:00:57;3.15;;;2.83;;
62588;SDS011;58504;48.770;9.148;2023-06-14T12:03:24;4.00;;;3.13;;
62588;SDS011;58504;48.770;9.148;2023-06-14T12:06:01;5.15;;;2.75;;
62588;SDS011;58504;48.770;9.148;2023-06-14T12:08:33;3.88;;;2.88;;
62588;SDS011;58504;48.770;9.148;2023-06-14T12:11:05;3.65;;;3.10;;
62588;SDS011;58504;48.770;9.148;2023-06-14T12:13:33;3.40;;;2.85;;
62588;SDS011;58504;48.770;9.148;2023-06-14T12:16:01;5.13;;;3.17;;
62588;SDS011;58504;48.770;9.148;2023-06-14T12:18:31;3.70;;;3.13;;
62588;SDS011;58504;48.770;9.148;2023-06-14T12:20:59;4.95;;;3.58;;
62588;SDS011;58504;48.770;9.148;2023-06-14T12:23:39;4.65;;;3.58;;
62588;SDS011;58504;48.770;9.148;2023-06-14T12:26:08;3.58;;;2.85;;
62588;SDS011;58504;48.770;9.148;2023-06-14T12:28:35;4.22;;;2.97;;
62588;SDS011;58504;48.770;9.148;2023-06-14T12:31:02;4.00;;;3.45;;
62588;SDS011;58504;48.770;9.148;2023-06-14T12:33:29;3.10;;;2.88;;
62588;SDS011;58504;48.770;9.148;2023-06-14T12:35:56;3.67;;;3.10;;
62588;SDS011;58504;48.770;9.148;2023-06-14T12:38:23;4.03;;;3.20;;
62588;SDS011;58504;48.770;9.148;2023-06-14T12:40:52;3.63;;;3.28;;
62588;SDS011;58504;48.770;9.148;2023-06-14T12:43:18;5.00;;;3.22;;
62588;SDS011;58504;48.770;9.148;2023-06-14T12:45:45;3.10;;;2.80;;
62588;SDS011;58504;48.770;9.148;2023-06-14T12:48:12;4.43;;;2.85;;
62588;SDS011;58504;48.770;9.148;2023-06-14T12:50:39;3.38;;;3.08;;
62588;SDS011;58504;48.770;9.148;2023-06-14T12:53:05;3.38;;;3.08;;
62588;SDS011;58504;48.770;9.148;2023-06-14T12:55:32;4.68;;;3.15;;
62588;SDS011;58504;48.770;9.148;2023-06-14T12:58:00;7.60;;;3.22;;
62588;SDS011;58504;48.770;9.148;2023-06-14T13:00:27;3.33;;;3.03;;
62588;SDS011;58504;48.770;9.148;2023-06-14T13:02:55;2.80;;;2.60;;
62588;SDS011;58504;48.770;9.148;2023-06-14T13:05:22;5.13;;;3.47;;
62588;SDS011;58504;48.770;9.148;2023-06-14T13:07:48;3.13;;;2.78;;
62588;SDS011;58504;48.770;9.148;2023-06-14T13:10:16;3.53;;;2.85;;
62588;SDS011;58504;48.770;9.148;2023-06-14T13:12:43;4.20;;;2.78;;
62588;SDS011;58504;48.770;9.148;2023-06-14T13:15:11;3.20;;;2.90;;
62588;SDS011;58504;48.770;9.148;2023-06-14T13:17:38;2.88;;;2.67;;
62588;SDS011;58504;48.770;9.148;2023-06-14T13:20:06;3.10;;;2.80;;
62588;SDS011;58504;48.770;9.148;2023-06-14T13:22:33;3.10;;;2.80;;
62588;SDS011;58504;48.770;9.148;2023-06-14T13:24:59;3.10;;;2.70;;
62588;SDS011;58504;48.770;9.148;2023-06-14T13:27:26;2.75;;;2.55;;
62588;SDS011;58504;48.770;9.148;2023-06-14T13:29:53;4.95;;;3.22;;
62588;SDS011;58504;48.770;9.148;2023-06-14T13:32:22;3.22;;;2.92;;
62588;SDS011;58504;48.770;9.148;2023-06-14T13:34:49;2.78;;;2.53;;
62588;SDS011;58504;48.770;9.148;2023-06-14T13:37:16;3.95;;;2.85;;
62588;SDS011;58504;48.770;9.148;2023-06-14T13:39:43;3.25;;;2.50;;
62588;SDS011;58504;48.770;9.148;2023-06-14T13:42:10;4.40;;;2.80;;
62588;SDS011;58504;48.770;9.148;2023-06-14T13:44:37;3.67;;;3.38;;
62588;SDS011;58504;48.770;9.148;2023-06-14T13:47:04;4.88;;;2.78;;
62588;SDS011;58504;48.770;9.148;2023-06-14T13:49:33;3.33;;;3.13;;
62588;SDS011;58504;48.770;9.148;2023-06-14T13:52:01;2.92;;;2.63;;
62588;SDS011;58504;48.770;9.148;2023-06-14T13:54:27;2.90;;;2.58;;
62588;SDS011;58504;48.770;9.148;2023-06-14T13:56:54;2.80;;;2.60;;
62588;SDS011;58504;48.770;9.148;2023-06-14T13:59:21;2.80;;;2.60;;
62588;SDS011;58504;48.770;9.148;2023-06-14T14:01:48;2.80;;;2.42;;
62588;SDS011;58504;48.770;9.148;2023-06-14T14:04:14;2.72;;;2.53;;
62588;SDS011;58504;48.770;9.148;2023-06-14T14:06:42;3.20;;;2.28;;
62588;SDS011;58504;48.770;9.148;2023-06-14T14:09:10;2.45;;;2.28;;
62588;SDS011;58504;48.770;9.148;2023-06-14T14:11:37;3.17;;;2.85;;
62588;SDS011;58504;48.770;9.148;2023-06-14T14:14:06;3.08;;;2.83;;
62588;SDS011;58504;48.770;9.148;2023-06-14T14:16:33;3.35;;;2.60;;
62588;SDS011;58504;48.770;9.148;2023-06-14T14:19:01;3.67;;;2.63;;
62588;SDS011;58504;48.770;9.148;2023-06-14T14:21:28;2.33;;;2.20;;
62588;SDS011;58504;48.770;9.148;2023-06-14T14:23:56;2.53;;;2.33;;
62588;SDS011;58504;48.770;9.148;2023-06-14T14:26:22;2.85;;;2.17;;
62588;SDS011;58504;48.770;9.148;2023-06-14T14:28:49;2.22;;;2.13;;
62588;SDS011;58504;48.770;9.148;2023-06-14T14:31:16;3.38;;;2.47;;
62588;SDS011;58504;48.770;9.148;2023-06-14T14:33:43;2.95;;;2.75;;
62588;SDS011;58504;48.770;9.148;2023-06-14T14:36:10;3.08;;;2.88;;
62588;SDS011;58504;48.770;9.148;2023-06-14T14:38:39;2.38;;;2.17;;
62588;SDS011;58504;48.770;9.148;2023-06-14T14:41:07;2.72;;;2.53;;
62588;SDS011;58504;48.770;9.148;2023-06-14T14:43:34;4.82;;;2.75;;
62588;SDS011;58504;48.770;9.148;2023-06-14T14:46:01;4.70;;;3.28;;
62588;SDS011;58504;48.770;9.148;2023-06-14T14:48:27;3.35;;;3.08;;
62588;SDS011;58504;48.770;9.148;2023-06-14T14:50:54;4.55;;;2.88;;
62588;SDS011;58504;48.770;9.148;2023-06-14T14:53:21;6.60;;;3.20;;
62588;SDS011;58504;48.770;9.148;2023-06-14T14:55:48;7.13;;;3.13;;
62588;SDS011;58504;48.770;9.148;2023-06-14T14:58:16;7.40;;;3.20;;
62588;SDS011;58504;48.770;9.148;2023-06-14T15:00:43;9.30;;;3.05;;